Time;durP1;ratioP1;P1;durP2;ratioP2;P2;SDS_P1;SDS_P2;PMS_P1;PMS_P2;Temp;Humidity;BMP_temperature;BMP_pressure;BME280_temperature;BME280_humidity;BME280_pressure;Samples;Min_cycle;Max_cycle;Signal;HPM_P1;HPM_P2
2023/07/23 00:00:52;;;;;;;5.33;2.80;;;16.80;38.70;;;;;;5016472;28;20308;-77
2023/07/23 00:03:18;;;;;;;5.67;2.70;;;16.70;49.10;;;;;;5015856;28;20184;-76
2023/07/23 00:05:47;;;;;;;4.27;2.67;;;16.70;82.40;;;;;;5016868;28;20205;-78
2023/07/23 00:08:13;;;;;;;4.60;2.77;;;16.80;99.90;;;;;;5016543;28;20176;-78
2023/07/23 00:10:39;;;;;;;3.90;2.37;;;16.70;99.90;;;;;;5015503;28;20283;-78
2023/07/23 00:13:05;;;;;;;5.87;2.50;;;16.70;99.90;;;;;;5015227;28;20200;-78
2023/07/23 00:15:30;;;;;;;10.80;2.90;;;16.70;99.90;;;;;;5015470;28;20193;-78
2023/07/23 00:17:58;;;;;;;4.53;2.80;;;16.60;90.90;;;;;;5017606;28;20208;-78
2023/07/23 00:20:23;;;;;;;6.03;2.70;;;16.60;97.40;;;;;;5015775;28;20193;-78
2023/07/23 00:22:49;;;;;;;5.83;2.93;;;16.70;91.80;;;;;;5016606;28;20182;-78
2023/07/23 00:25:14;;;;;;;4.40;2.50;;;16.60;99.90;;;;;;5015238;28;20173;-77
2023/07/23 00:27:40;;;;;;;4.23;2.90;;;16.60;99.90;;;;;;5016140;28;20264;-78
2023/07/23 00:30:06;;;;;;;5.70;2.90;;;16.70;99.90;;;;;;5014587;28;20200;-79
2023/07/23 00:32:31;;;;;;;5.50;3.73;;;16.60;99.90;;;;;;5015522;28;20185;-79
2023/07/23 00:34:57;;;;;;;6.07;2.67;;;16.60;99.90;;;;;;5016334;28;20204;-78
2023/07/23 00:37:22;;;;;;;5.73;2.93;;;16.60;99.90;;;;;;5014973;28;20197;-79
2023/07/23 00:39:48;;;;;;;8.50;2.77;;;16.60;99.90;;;;;;5016256;28;20553;-78
2023/07/23 00:42:13;;;;;;;5.30;2.67;;;16.60;99.90;;;;;;5016269;28;20664;-79
2023/07/23 00:44:39;;;;;;;4.70;2.90;;;16.60;99.90;;;;;;5014377;28;20212;-78
2023/07/23 00:47:05;;;;;;;6.97;3.03;;;16.60;78.70;;;;;;5014124;28;20189;-78
2023/07/23 00:49:31;;;;;;;3.73;2.97;;;16.60;54.00;;;;;;5014434;28;20173;-78
2023/07/23 00:51:58;;;;;;;5.07;2.73;;;16.60;49.40;;;;;;5014629;28;20175;-78
2023/07/23 00:54:24;;;;;;;9.47;2.90;;;16.60;98.30;;;;;;5016296;28;20208;-79
2023/07/23 00:56:50;;;;;;;6.03;2.90;;;16.60;63.00;;;;;;5014712;28;20173;-78
2023/07/23 00:59:17;;;;;;;4.93;2.83;;;16.60;12.60;;;;;;5015480;28;20231;-78
2023/07/23 01:01:43;;;;;;;4.47;3.00;;;16.60;4.10;;;;;;5014132;28;20616;-79
2023/07/23 01:04:09;;;;;;;3.97;2.93;;;16.60;1.00;;;;;;5014238;28;20267;-79
2023/07/23 01:06:37;;;;;;;6.20;3.17;;;16.60;1.00;;;;;;5015823;28;20257;-78
2023/07/23 01:09:04;;;;;;;3.67;2.60;;;16.60;1.00;;;;;;5014709;28;20185;-78
2023/07/23 01:11:32;;;;;;;5.90;3.00;;;16.60;1.00;;;;;;5014322;28;20215;-78
2023/07/23 01:13:58;;;;;;;6.40;2.90;;;16.60;1.00;;;;;;5015587;28;20177;-78
2023/07/23 01:16:25;;;;;;;4.17;2.93;;;16.60;1.00;;;;;;5015701;28;20169;-78
2023/07/23 01:18:51;;;;;;;7.50;3.40;;;16.60;1.00;;;;;;5013090;28;20250;-78
2023/07/23 01:21:17;;;;;;;6.00;3.13;;;16.60;1.00;;;;;;5014281;28;20192;-79
2023/07/23 01:23:43;;;;;;;6.43;3.27;;;16.70;1.00;;;;;;5015743;28;20172;-79
2023/07/23 01:26:09;;;;;;;4.73;3.30;;;16.60;99.90;;;;;;5015587;28;20177;-78
2023/07/23 01:28:35;;;;;;;6.10;3.70;;;16.60;99.90;;;;;;5013953;28;20557;-78
2023/07/23 01:31:01;;;;;;;5.07;2.93;;;16.70;13.80;;;;;;5014712;28;20236;-79
2023/07/23 01:33:26;;;;;;;7.03;3.40;;;16.60;1.00;;;;;;5014167;28;20180;-79
2023/07/23 01:35:56;;;;;;;6.50;4.20;;;16.70;1.00;;;;;;5014397;28;20204;-78
2023/07/23 01:38:22;;;;;;;4.87;3.40;;;16.70;1.00;;;;;;5015486;28;20218;-79
2023/07/23 01:40:48;;;;;;;5.03;3.43;;;16.80;1.00;;;;;;5016240;28;20568;-79
2023/07/23 01:43:14;;;;;;;7.37;3.63;;;16.70;99.90;;;;;;5015384;28;20219;-79
2023/07/23 01:45:44;;;;;;;3.80;2.97;;;16.70;99.90;;;;;;5014751;28;20184;-78
2023/07/23 01:48:12;;;;;;;4.50;3.33;;;16.80;99.90;;;;;;5008128;28;20177;-78
2023/07/23 01:50:38;;;;;;;5.40;3.50;;;16.70;31.60;;;;;;5009237;28;20200;-77
2023/07/23 01:53:03;;;;;;;5.77;3.50;;;16.80;54.00;;;;;;4995421;28;20191;-79
2023/07/23 01:55:29;;;;;;;4.30;3.43;;;16.80;1.00;;;;;;4994066;28;20205;-79
2023/07/23 01:57:54;;;;;;;6.50;3.93;;;16.80;1.00;;;;;;5006371;28;20251;-78
2023/07/23 02:00:20;;;;;;;4.57;3.40;;;16.80;1.00;;;;;;5014621;28;20280;-78
2023/07/23 02:02:45;;;;;;;6.17;3.27;;;16.80;1.00;;;;;;5013955;28;20173;-78
2023/07/23 02:05:13;;;;;;;4.90;3.43;;;16.80;1.00;;;;;;5014727;28;20721;-79
2023/07/23 02:07:39;;;;;;;5.30;3.43;;;16.80;99.90;;;;;;5014732;28;20176;-78
2023/07/23 02:10:05;;;;;;;8.43;3.90;;;16.80;99.90;;;;;;5014410;28;20525;-78
2023/07/23 02:12:30;;;;;;;4.30;3.57;;;16.80;99.90;;;;;;5010823;28;20185;-78
2023/07/23 02:14:56;;;;;;;4.20;3.50;;;16.80;1.00;;;;;;5014629;28;20176;-78
2023/07/23 02:17:21;;;;;;;5.20;3.93;;;16.80;1.00;;;;;;5014367;28;20250;-78
2023/07/23 02:19:47;;;;;;;7.47;3.50;;;16.80;99.90;;;;;;5014447;28;20295;-79
2023/07/23 02:22:12;;;;;;;6.13;3.63;;;16.80;1.00;;;;;;5014850;28;20716;-78
2023/07/23 02:24:38;;;;;;;6.83;3.90;;;16.80;1.00;;;;;;5013285;28;20263;-78
2023/07/23 02:27:04;;;;;;;4.57;3.50;;;16.90;99.90;;;;;;5012370;28;20185;-79
2023/07/23 02:29:29;;;;;;;8.90;4.07;;;16.90;89.80;;;;;;5012930;28;20173;-78
2023/07/23 02:31:55;;;;;;;7.20;3.53;;;16.90;1.00;;;;;;5014696;28;20180;-78
2023/07/23 02:34:21;;;;;;;5.47;3.70;;;16.90;99.90;;;;;;5012742;28;20708;-80
2023/07/23 02:36:47;;;;;;;7.97;3.70;;;16.90;1.00;;;;;;5012928;28;20231;-78
2023/07/23 02:39:12;;;;;;;6.03;4.10;;;16.90;99.90;;;;;;5014541;28;20244;-79
2023/07/23 02:41:38;;;;;;;5.67;3.60;;;16.90;99.90;;;;;;5014670;28;20187;-78
2023/07/23 02:44:04;;;;;;;5.87;3.87;;;16.90;99.90;;;;;;5019582;28;20603;-78
2023/07/23 02:46:29;;;;;;;5.33;3.70;;;16.90;91.00;;;;;;5019450;28;20184;-78
2023/07/23 02:48:55;;;;;;;6.90;3.90;;;17.00;25.00;;;;;;5019727;28;20215;-78
2023/07/23 02:51:21;;;;;;;5.30;3.80;;;17.00;19.90;;;;;;5019524;28;20203;-78
2023/07/23 02:53:48;;;;;;;7.03;3.70;;;16.90;1.00;;;;;;5019760;28;20314;-78
2023/07/23 02:56:14;;;;;;;5.83;3.70;;;17.00;1.00;;;;;;5020722;28;20203;-78
2023/07/23 02:58:39;;;;;;;8.03;4.13;;;17.00;1.00;;;;;;5017277;28;20684;-78
2023/07/23 03:01:05;;;;;;;5.87;3.90;;;17.00;1.00;;;;;;5018881;28;20196;-78
2023/07/23 03:03:30;;;;;;;5.53;3.93;;;17.00;1.00;;;;;;5020332;28;20180;-79
2023/07/23 03:05:56;;;;;;;5.00;3.77;;;17.00;1.00;;;;;;5019304;28;20183;-79
2023/07/23 03:08:22;;;;;;;5.67;4.50;;;17.00;1.00;;;;;;5020400;28;20185;-79
2023/07/23 03:10:47;;;;;;;4.93;3.97;;;17.00;99.90;;;;;;5018782;28;20209;-79
2023/07/23 03:13:13;;;;;;;5.63;3.83;;;17.00;99.90;;;;;;5020094;28;20176;-78
2023/07/23 03:15:39;;;;;;;5.57;3.53;;;17.00;99.90;;;;;;5020620;28;20180;-78
2023/07/23 03:18:04;;;;;;;5.83;3.80;;;17.00;1.00;;;;;;5018683;28;20258;-79
2023/07/23 03:20:30;;;;;;;4.93;3.73;;;17.00;1.00;;;;;;5018822;28;20308;-78
2023/07/23 03:22:56;;;;;;;7.53;3.80;;;17.00;1.00;;;;;;5020271;28;20259;-79
2023/07/23 03:25:21;;;;;;;5.97;3.70;;;17.00;1.00;;;;;;5020297;28;20165;-78
2023/07/23 03:27:47;;;;;;;8.30;3.57;;;17.00;99.90;;;;;;5020561;28;20195;-78
2023/07/23 03:30:13;;;;;;;4.80;3.67;;;17.00;99.90;;;;;;5020187;28;20613;-78
2023/07/23 03:32:40;;;;;;;4.80;3.87;;;17.00;99.90;;;;;;5019502;28;20191;-79
2023/07/23 03:35:06;;;;;;;6.37;4.30;;;17.00;99.90;;;;;;5020337;28;20196;-78
2023/07/23 03:37:32;;;;;;;7.63;3.80;;;17.00;1.00;;;;;;5018801;28;20212;-79
2023/07/23 03:39:57;;;;;;;5.50;3.63;;;17.00;99.90;;;;;;5018955;28;20668;-79
2023/07/23 03:42:24;;;;;;;7.00;3.97;;;17.10;1.00;;;;;;5020163;28;20675;-77
2023/07/23 03:44:49;;;;;;;8.87;4.33;;;17.10;99.90;;;;;;5018507;28;20207;-78
2023/07/23 03:47:17;;;;;;;5.50;3.97;;;17.20;99.90;;;;;;5020400;28;20621;-78
2023/07/23 03:49:43;;;;;;;4.67;3.73;;;17.30;99.90;;;;;;5018908;28;20719;-78
2023/07/23 03:52:09;;;;;;;6.17;3.60;;;17.10;1.00;;;;;;5020610;28;20192;-77
2023/07/23 03:54:35;;;;;;;5.10;4.00;;;17.20;1.00;;;;;;5017282;28;20173;-78
2023/07/23 03:57:01;;;;;;;4.47;3.67;;;17.20;1.00;;;;;;5017648;28;20177;-79
2023/07/23 03:59:35;;;;;;;5.00;4.03;;;17.20;99.90;;;;;;5018768;28;20568;-79
2023/07/23 04:02:00;;;;;;;8.63;4.10;;;17.20;99.90;;;;;;5030852;28;20166;-78
2023/07/23 04:04:26;;;;;;;4.70;3.80;;;17.30;1.00;;;;;;5027674;28;20173;-78
2023/07/23 04:06:52;;;;;;;7.13;3.93;;;17.30;1.00;;;;;;5016537;28;20496;-78
2023/07/23 04:09:18;;;;;;;3.97;3.27;;;17.30;99.90;;;;;;5015194;28;20177;-79
2023/07/23 04:11:44;;;;;;;7.80;3.90;;;17.30;99.90;;;;;;5016619;28;20173;-79
2023/07/23 04:14:09;;;;;;;7.53;3.77;;;17.30;99.90;;;;;;5014176;28;20204;-79
2023/07/23 04:16:35;;;;;;;5.03;3.40;;;17.30;99.90;;;;;;5014045;28;20187;-78
2023/07/23 04:19:00;;;;;;;8.07;4.27;;;17.20;99.90;;;;;;5016572;28;20197;-79
2023/07/23 04:21:26;;;;;;;9.33;3.80;;;17.30;99.90;;;;;;5014922;28;20193;-77
2023/07/23 04:23:54;;;;;;;5.87;3.50;;;17.20;99.90;;;;;;5016662;28;20176;-79
2023/07/23 04:26:21;;;;;;;8.73;3.80;;;17.30;99.90;;;;;;5015059;28;20653;-79
2023/07/23 04:28:47;;;;;;;4.10;3.63;;;17.40;99.90;;;;;;5014841;28;20185;-77
2023/07/23 04:31:13;;;;;;;4.53;3.47;;;17.40;99.90;;;;;;5015308;28;20263;-78
2023/07/23 04:33:39;;;;;;;4.60;3.07;;;17.40;99.90;;;;;;5016654;28;20189;-79
2023/07/23 04:36:07;;;;;;;7.97;3.00;;;17.40;99.90;;;;;;5016169;28;20200;-79
2023/07/23 04:38:34;;;;;;;4.43;2.93;;;17.50;99.90;;;;;;5016139;28;20227;-79
2023/07/23 04:41:00;;;;;;;6.17;3.17;;;17.50;99.90;;;;;;5014575;28;20200;-78
2023/07/23 04:43:25;;;;;;;5.53;3.00;;;17.60;99.90;;;;;;5015997;28;20533;-78
2023/07/23 04:45:51;;;;;;;7.30;3.47;;;17.70;99.90;;;;;;5014130;28;20173;-78
2023/07/23 04:48:16;;;;;;;3.33;2.73;;;17.70;99.90;;;;;;5011201;28;20208;-78
2023/07/23 04:50:43;;;;;;;6.77;2.77;;;17.70;99.90;;;;;;4995934;28;20230;-78
2023/07/23 04:53:08;;;;;;;3.70;3.00;;;17.80;99.90;;;;;;4996060;28;20186;-79
2023/07/23 04:55:34;;;;;;;4.33;2.53;;;17.90;99.90;;;;;;4994965;28;20189;-78
2023/07/23 04:58:00;;;;;;;3.97;2.50;;;17.90;99.90;;;;;;4995174;28;20626;-78
2023/07/23 05:00:26;;;;;;;4.30;2.77;;;18.00;99.90;;;;;;4996205;28;20657;-78
2023/07/23 05:02:52;;;;;;;5.30;3.20;;;18.00;99.90;;;;;;5021422;28;20185;-79
2023/07/23 05:05:18;;;;;;;3.80;2.60;;;18.00;99.90;;;;;;5015538;28;20648;-79
2023/07/23 05:07:43;;;;;;;3.50;2.60;;;18.20;99.90;;;;;;5014632;28;20600;-78
2023/07/23 05:10:09;;;;;;;6.23;2.90;;;18.10;93.30;;;;;;5014406;28;20568;-79
2023/07/23 05:12:35;;;;;;;3.60;2.67;;;18.20;98.80;;;;;;5014192;28;20185;-78
2023/07/23 05:15:14;;;;;;;7.10;2.70;;;18.20;99.90;;;;;;5014283;28;20214;-78
2023/07/23 05:17:40;;;;;;;5.63;3.03;;;18.30;99.80;;;;;;5012097;28;20213;-78
2023/07/23 05:20:07;;;;;;;5.60;2.70;;;18.40;95.70;;;;;;5012555;28;20286;-78
2023/07/23 05:22:33;;;;;;;6.33;3.43;;;18.40;92.20;;;;;;5015324;28;20248;-78
2023/07/23 05:24:59;;;;;;;2.90;2.60;;;18.40;61.60;;;;;;5015659;28;20185;-79
2023/07/23 05:27:26;;;;;;;4.07;2.33;;;18.50;80.80;;;;;;5016106;28;20187;-79
2023/07/23 05:29:51;;;;;;;4.70;2.50;;;18.50;91.60;;;;;;5014090;28;20243;-79
2023/07/23 05:32:17;;;;;;;3.00;2.37;;;18.50;77.30;;;;;;5014910;28;20174;-79
2023/07/23 05:34:42;;;;;;;3.67;2.10;;;18.50;40.50;;;;;;5015555;28;20196;-79
2023/07/23 05:37:08;;;;;;;3.17;2.30;;;18.60;29.40;;;;;;5016080;28;20180;-80
2023/07/23 05:39:34;;;;;;;4.90;2.33;;;18.60;1.00;;;;;;5014593;28;20200;-79
2023/07/23 05:41:59;;;;;;;5.37;2.30;;;18.70;1.20;;;;;;5015790;28;20659;-80
2023/07/23 05:44:25;;;;;;;2.57;2.37;;;18.80;1.00;;;;;;5015672;28;20176;-79
2023/07/23 05:46:51;;;;;;;2.13;1.83;;;18.80;5.00;;;;;;5015493;28;20516;-78
2023/07/23 05:49:16;;;;;;;3.13;2.20;;;18.90;1.00;;;;;;5015612;28;20188;-79
2023/07/23 05:51:42;;;;;;;2.97;2.17;;;18.90;1.00;;;;;;5014070;28;20181;-79
2023/07/23 05:54:07;;;;;;;3.63;2.00;;;18.90;1.00;;;;;;5015381;28;20173;-79
2023/07/23 05:56:33;;;;;;;4.77;2.57;;;19.10;1.00;;;;;;5014736;28;20177;-79
2023/07/23 05:58:59;;;;;;;3.03;2.00;;;19.00;1.00;;;;;;5013574;28;20214;-78
2023/07/23 06:01:24;;;;;;;3.83;3.03;;;19.10;1.00;;;;;;5015810;28;20185;-79
2023/07/23 06:03:50;;;;;;;5.40;2.10;;;19.20;1.00;;;;;;5014342;28;20181;-78
2023/07/23 06:06:15;;;;;;;3.67;2.23;;;19.10;1.00;;;;;;5016109;28;20248;-79
2023/07/23 06:08:41;;;;;;;2.10;1.87;;;19.10;1.00;;;;;;5014904;28;20183;-79
2023/07/23 06:11:06;;;;;;;6.17;2.13;;;19.10;1.00;;;;;;5016213;28;20615;-79
2023/07/23 06:13:32;;;;;;;3.77;2.00;;;19.20;1.00;;;;;;5017838;28;20263;-79
2023/07/23 06:15:57;;;;;;;3.90;2.27;;;19.20;1.00;;;;;;5025704;28;20173;-78
2023/07/23 06:18:23;;;;;;;3.77;2.30;;;19.20;1.00;;;;;;5020848;28;20204;-79
2023/07/23 06:20:49;;;;;;;4.77;2.50;;;19.30;1.00;;;;;;5015334;28;20216;-79
2023/07/23 06:23:14;;;;;;;6.97;2.27;;;19.30;1.00;;;;;;5015170;28;20181;-78
2023/07/23 06:25:40;;;;;;;3.27;1.80;;;19.30;1.00;;;;;;5013275;28;20223;-79
2023/07/23 06:28:05;;;;;;;3.47;1.90;;;19.30;1.00;;;;;;5012029;28;20185;-79
2023/07/23 06:30:33;;;;;;;4.73;2.27;;;19.20;1.00;;;;;;5013596;28;20219;-79
2023/07/23 06:32:58;;;;;;;3.90;1.83;;;19.40;1.00;;;;;;5013013;28;20187;-79
2023/07/23 06:35:24;;;;;;;3.87;1.90;;;19.30;1.00;;;;;;5018208;28;20283;-79
2023/07/23 06:37:49;;;;;;;3.43;1.63;;;19.30;1.00;;;;;;5014900;28;20672;-78
2023/07/23 06:40:15;;;;;;;3.90;2.20;;;19.30;1.00;;;;;;5015015;28;20193;-79
2023/07/23 06:42:40;;;;;;;2.73;2.00;;;19.30;1.00;;;;;;5014902;28;20177;-78
2023/07/23 06:45:07;;;;;;;4.80;2.17;;;19.30;1.00;;;;;;5014256;28;20177;-78
2023/07/23 06:47:32;;;;;;;4.60;2.33;;;19.30;1.00;;;;;;5016090;28;20187;-79
2023/07/23 06:49:58;;;;;;;3.07;2.20;;;19.30;1.00;;;;;;5016749;28;20276;-79
2023/07/23 06:52:23;;;;;;;4.67;2.20;;;19.40;1.00;;;;;;5016290;28;20173;-79
2023/07/23 06:54:49;;;;;;;5.00;2.50;;;19.40;1.00;;;;;;5014591;28;20180;-79
2023/07/23 06:57:14;;;;;;;5.07;2.40;;;19.40;1.00;;;;;;5016430;28;20189;-79
2023/07/23 06:59:40;;;;;;;4.57;2.30;;;19.40;1.00;;;;;;5013074;28;20203;-79
2023/07/23 07:02:06;;;;;;;3.17;2.40;;;19.40;1.00;;;;;;5014913;28;20259;-79
2023/07/23 07:04:32;;;;;;;5.80;2.70;;;19.50;1.00;;;;;;5015354;28;20177;-79
2023/07/23 07:06:57;;;;;;;4.57;2.20;;;19.50;1.00;;;;;;5015085;28;20179;-80
2023/07/23 07:09:23;;;;;;;3.87;2.03;;;19.50;1.00;;;;;;5014835;28;20177;-79
2023/07/23 07:11:50;;;;;;;4.40;2.23;;;19.50;1.00;;;;;;5014958;28;20212;-79
2023/07/23 07:14:16;;;;;;;4.73;2.40;;;19.50;1.00;;;;;;5015592;28;20223;-80
2023/07/23 07:16:41;;;;;;;6.03;2.47;;;19.60;1.00;;;;;;5014747;28;20550;-78
2023/07/23 07:19:07;;;;;;;3.17;2.20;;;19.50;1.00;;;;;;5014472;28;20734;-78
2023/07/23 07:21:32;;;;;;;5.37;2.50;;;19.50;2.40;;;;;;5016983;28;20743;-79
2023/07/23 07:23:58;;;;;;;6.10;2.43;;;19.40;18.10;;;;;;5026839;28;20534;-79
2023/07/23 07:26:24;;;;;;;3.77;2.50;;;19.40;7.60;;;;;;5025895;28;20188;-80
2023/07/23 07:28:51;;;;;;;5.40;2.53;;;19.40;37.70;;;;;;5027291;28;20177;-78
2023/07/23 07:31:17;;;;;;;4.90;2.83;;;19.30;99.90;;;;;;5027739;28;20207;-79
2023/07/23 07:33:44;;;;;;;7.73;2.70;;;19.20;99.90;;;;;;5031858;28;20272;-79
2023/07/23 07:36:09;;;;;;;4.53;2.27;;;19.10;99.90;;;;;;5030925;28;20652;-78
2023/07/23 07:38:35;;;;;;;4.67;2.43;;;19.00;88.10;;;;;;5022233;28;20296;-80
2023/07/23 07:41:01;;;;;;;4.07;2.23;;;19.00;99.20;;;;;;5019388;28;20216;-82
2023/07/23 07:43:27;;;;;;;3.10;2.27;;;19.00;99.90;;;;;;5016716;28;20177;-79
2023/07/23 07:46:00;;;;;;;4.53;2.60;;;18.90;91.10;;;;;;5016674;28;20180;-79
2023/07/23 07:48:29;;;;;;;8.53;1.97;;;19.00;78.50;;;;;;5016176;28;20597;-78
2023/07/23 07:51:03;;;;;;;3.97;2.50;;;19.00;91.80;;;;;;5017673;28;20189;-79
2023/07/23 07:53:29;;;;;;;5.40;2.10;;;19.00;75.70;;;;;;5018168;28;20161;-79
2023/07/23 07:55:55;;;;;;;7.90;2.60;;;18.90;90.40;;;;;;5018408;28;20183;-79
2023/07/23 07:58:27;;;;;;;4.87;2.30;;;19.00;93.40;;;;;;5017428;28;20212;-79
2023/07/23 08:00:58;;;;;;;4.63;2.20;;;18.90;99.90;;;;;;5016373;28;20335;-79
2023/07/23 08:03:26;;;;;;;3.73;2.40;;;19.00;93.10;;;;;;5017838;28;20180;-79
2023/07/23 08:05:52;;;;;;;3.60;1.90;;;19.00;66.30;;;;;;5018024;28;20259;-79
2023/07/23 08:08:25;;;;;;;4.00;1.90;;;19.00;86.70;;;;;;5017717;28;20177;-78
2023/07/23 08:10:55;;;;;;;4.47;1.93;;;19.00;92.30;;;;;;5017469;28;20216;-78
2023/07/23 08:13:20;;;;;;;3.03;2.20;;;19.00;94.90;;;;;;5016420;28;20252;-79
2023/07/23 08:15:47;;;;;;;4.63;2.27;;;18.90;98.40;;;;;;5015905;28;20184;-78
2023/07/23 08:18:13;;;;;;;4.53;2.17;;;19.00;97.70;;;;;;5016076;28;20196;-78
2023/07/23 08:20:39;;;;;;;3.20;2.00;;;19.00;99.90;;;;;;5015463;28;20688;-78
2023/07/23 08:23:05;;;;;;;4.13;2.50;;;19.00;99.90;;;;;;5017136;28;20282;-79
2023/07/23 08:25:31;;;;;;;5.17;2.37;;;18.90;99.90;;;;;;5015907;28;20173;-79
2023/07/23 08:28:01;;;;;;;4.17;2.57;;;18.80;99.90;;;;;;5020805;28;20223;-78
2023/07/23 08:30:30;;;;;;;7.10;2.30;;;18.80;99.90;;;;;;5020338;28;20799;-78
2023/07/23 08:32:58;;;;;;;2.70;1.97;;;18.70;99.90;;;;;;5015374;28;20191;-78
2023/07/23 08:35:25;;;;;;;6.73;2.20;;;18.70;99.90;;;;;;5014752;28;20672;-79
2023/07/23 08:37:51;;;;;;;2.40;2.17;;;18.60;99.90;;;;;;5016672;28;20564;-79
2023/07/23 08:40:19;;;;;;;4.87;2.10;;;18.50;99.90;;;;;;5015748;28;20269;-79
2023/07/23 08:42:53;;;;;;;2.70;2.07;;;18.40;1.00;;;;;;5014940;28;20653;-79
2023/07/23 08:45:54;;;;;;;2.63;2.17;;;18.30;1.00;;;;;;5016003;28;20173;-79
2023/07/23 08:48:20;;;;;;;5.60;2.30;;;18.10;1.00;;;;;;4994578;28;20199;-78
2023/07/23 08:50:48;;;;;;;6.70;2.20;;;18.10;1.00;;;;;;5016294;28;20680;-79
2023/07/23 08:53:16;;;;;;;2.83;2.27;;;18.10;1.00;;;;;;5015716;28;20192;-78
2023/07/23 08:55:44;;;;;;;4.03;2.20;;;18.00;1.00;;;;;;5016240;28;20173;-79
2023/07/23 08:58:18;;;;;;;5.17;2.40;;;17.90;1.00;;;;;;5017279;28;20610;-79
2023/07/23 09:00:45;;;;;;;4.53;2.33;;;17.80;1.00;;;;;;5016814;28;20272;-79
2023/07/23 09:03:14;;;;;;;3.60;2.30;;;17.80;1.00;;;;;;5016742;28;20238;-79
2023/07/23 09:05:40;;;;;;;3.27;2.57;;;17.80;1.00;;;;;;5017045;28;20173;-79
2023/07/23 09:08:05;;;;;;;3.13;2.20;;;17.80;1.00;;;;;;5016748;28;20173;-79
2023/07/23 09:10:31;;;;;;;3.90;2.57;;;17.80;1.00;;;;;;5014835;28;20575;-78
2023/07/23 09:12:57;;;;;;;6.27;2.80;;;17.80;1.00;;;;;;5016733;28;20181;-79
2023/07/23 09:15:22;;;;;;;4.37;2.37;;;17.80;1.00;;;;;;5016109;28;20212;-79
2023/07/23 09:17:51;;;;;;;3.20;2.50;;;17.80;1.00;;;;;;5014885;28;20236;-79
2023/07/23 09:20:20;;;;;;;4.13;2.47;;;17.80;1.00;;;;;;5014866;28;20200;-77
2023/07/23 09:22:46;;;;;;;6.30;2.47;;;17.80;1.00;;;;;;5016375;28;20165;-79
2023/07/23 09:25:12;;;;;;;3.23;2.03;;;17.80;1.00;;;;;;5015855;28;20173;-78
2023/07/23 09:27:41;;;;;;;6.37;2.30;;;17.80;1.00;;;;;;5014756;28;20200;-79
2023/07/23 09:30:07;;;;;;;2.70;2.40;;;17.90;1.00;;;;;;5015660;28;20203;-78
2023/07/23 09:32:32;;;;;;;2.20;2.00;;;18.00;1.00;;;;;;5015658;28;20176;-79
2023/07/23 09:34:59;;;;;;;3.47;2.60;;;18.00;1.00;;;;;;5017522;28;20604;-79
2023/07/23 09:37:28;;;;;;;4.23;2.40;;;18.00;1.00;;;;;;5034053;28;20184;-79
2023/07/23 09:39:56;;;;;;;3.07;2.43;;;18.10;1.00;;;;;;5033266;28;20193;-78
2023/07/23 09:42:25;;;;;;;2.73;2.30;;;18.10;1.00;;;;;;5026918;28;20180;-79
2023/07/23 09:44:51;;;;;;;3.57;2.60;;;18.20;1.00;;;;;;5015785;28;20624;-79
2023/07/23 09:47:24;;;;;;;3.70;2.10;;;18.10;1.00;;;;;;5016000;28;20169;-78
2023/07/23 09:49:53;;;;;;;3.53;2.17;;;18.10;1.00;;;;;;5013749;28;20199;-78
2023/07/23 09:52:23;;;;;;;4.10;2.53;;;18.10;1.00;;;;;;5013658;28;20653;-79
2023/07/23 09:54:51;;;;;;;4.03;2.47;;;18.10;24.80;;;;;;5015997;28;20173;-78
2023/07/23 09:57:18;;;;;;;4.03;2.80;;;18.30;68.90;;;;;;5014020;28;20240;-79
2023/07/23 09:59:45;;;;;;;4.23;2.30;;;18.20;58.50;;;;;;5014366;28;20256;-78
2023/07/23 10:02:12;;;;;;;8.87;2.40;;;18.20;99.90;;;;;;5014442;28;20177;-79
2023/07/23 10:04:38;;;;;;;4.20;2.80;;;18.20;99.90;;;;;;5016044;28;20551;-79
2023/07/23 10:07:05;;;;;;;5.07;2.20;;;18.30;99.90;;;;;;5014701;28;20177;-79
2023/07/23 10:09:32;;;;;;;3.20;2.27;;;18.30;99.90;;;;;;5017080;28;20184;-79
2023/07/23 10:11:58;;;;;;;5.40;2.60;;;18.40;97.90;;;;;;5023315;28;20219;-79
2023/07/23 10:14:23;;;;;;;4.73;2.33;;;18.50;69.90;;;;;;5021132;28;20276;-79
2023/07/23 10:16:52;;;;;;;6.27;2.50;;;18.50;20.40;;;;;;5026483;28;20246;-79
2023/07/23 10:19:19;;;;;;;3.23;2.00;;;18.50;1.00;;;;;;5026491;28;20203;-80
2023/07/23 10:21:49;;;;;;;3.83;2.23;;;18.70;1.00;;;;;;5024490;28;20268;-79
2023/07/23 10:24:15;;;;;;;6.43;2.13;;;18.50;1.00;;;;;;5022401;28;20188;-79
2023/07/23 10:26:43;;;;;;;1.90;1.70;;;18.60;1.00;;;;;;5017213;28;20589;-79
2023/07/23 10:29:14;;;;;;;4.67;1.80;;;18.60;1.00;;;;;;5013181;28;20263;-78
2023/07/23 10:31:42;;;;;;;3.00;1.77;;;18.70;1.00;;;;;;5014979;28;20157;-79
2023/07/23 10:34:23;;;;;;;1.37;1.27;;;18.70;1.00;;;;;;5012756;28;20272;-78
2023/07/23 10:37:09;;;;;;;2.17;1.43;;;18.70;1.00;;;;;;5014687;28;20672;-78
2023/07/23 10:39:59;;;;;;;2.00;1.37;;;18.70;1.00;;;;;;5013166;28;20204;-78
2023/07/23 10:42:38;;;;;;;2.43;1.53;;;18.80;1.00;;;;;;5023089;28;20150;-77
2023/07/23 10:45:25;;;;;;;3.53;1.50;;;18.80;1.00;;;;;;5028487;28;20189;-78
2023/07/23 10:48:00;;;;;;;2.73;1.27;;;18.90;1.00;;;;;;5012576;28;20263;-79
2023/07/23 10:50:29;;;;;;;1.50;1.40;;;18.90;1.00;;;;;;5014173;28;20274;-77
2023/07/23 10:53:04;;;;;;;2.70;1.37;;;19.00;1.00;;;;;;5014320;28;20177;-79
2023/07/23 10:55:47;;;;;;;2.50;1.20;;;19.00;1.00;;;;;;5014077;28;20302;-79
2023/07/23 10:58:15;;;;;;;1.57;1.37;;;19.00;1.00;;;;;;5013465;28;20235;-79
2023/07/23 11:00:52;;;;;;;1.20;1.10;;;18.90;1.00;;;;;;5012520;28;20193;-79
2023/07/23 11:03:20;;;;;;;1.50;1.10;;;18.90;1.00;;;;;;5015345;28;20161;-78
2023/07/23 11:05:46;;;;;;;1.67;1.20;;;18.90;1.00;;;;;;5018027;28;20165;-79
2023/07/23 11:08:15;;;;;;;2.00;1.40;;;19.00;1.00;;;;;;5016413;28;20177;-78
2023/07/23 11:10:45;;;;;;;2.60;1.40;;;19.00;1.00;;;;;;5016619;28;20196;-78
2023/07/23 11:13:11;;;;;;;5.27;1.30;;;19.00;1.00;;;;;;5016517;28;20177;-77
2023/07/23 11:15:37;;;;;;;1.60;1.30;;;19.00;1.00;;;;;;5017847;28;20256;-78
2023/07/23 11:18:03;;;;;;;1.33;1.20;;;19.00;1.00;;;;;;5017983;28;20280;-78
2023/07/23 11:20:28;;;;;;;2.17;1.13;;;19.00;1.00;;;;;;5017729;28;20687;-77
2023/07/23 11:22:58;;;;;;;1.77;1.43;;;19.10;1.00;;;;;;5018201;28;20576;-78
2023/07/23 11:25:23;;;;;;;1.20;1.03;;;19.10;1.00;;;;;;5018103;28;20173;-78
2023/07/23 11:27:49;;;;;;;1.20;1.10;;;19.20;1.00;;;;;;5016599;28;20259;-79
2023/07/23 11:30:14;;;;;;;1.60;1.30;;;19.20;1.00;;;;;;5017585;28;20243;-78
2023/07/23 11:32:40;;;;;;;4.00;1.13;;;19.20;1.00;;;;;;5016085;28;20180;-78
2023/07/23 11:35:06;;;;;;;2.23;1.20;;;19.10;1.00;;;;;;5015721;28;20254;-78
2023/07/23 11:37:32;;;;;;;1.83;1.23;;;19.20;1.00;;;;;;5017271;28;20282;-79
2023/07/23 11:39:57;;;;;;;1.50;1.30;;;19.30;1.00;;;;;;5016089;28;20193;-78
2023/07/23 11:42:23;;;;;;;2.33;1.30;;;19.30;1.00;;;;;;5016171;28;20265;-78
2023/07/23 11:45:02;;;;;;;2.83;1.30;;;19.30;1.00;;;;;;5015981;28;20177;-77
2023/07/23 11:47:28;;;;;;;1.63;1.33;;;19.30;1.00;;;;;;5015926;28;20547;-77
2023/07/23 11:49:54;;;;;;;1.60;1.23;;;19.30;1.00;;;;;;5014699;28;20204;-78
2023/07/23 11:52:25;;;;;;;2.87;1.13;;;19.30;1.00;;;;;;5015032;28;20280;-78
2023/07/23 11:54:51;;;;;;;2.37;1.27;;;19.30;1.00;;;;;;5014697;28;20177;-76
2023/07/23 11:57:17;;;;;;;2.47;1.23;;;19.20;1.00;;;;;;5016082;28;20199;-77
2023/07/23 11:59:43;;;;;;;1.73;1.17;;;19.10;1.00;;;;;;5015797;28;20219;-76
2023/07/23 12:02:09;;;;;;;1.43;1.33;;;19.00;1.00;;;;;;5014759;28;20177;-77
2023/07/23 12:04:38;;;;;;;1.50;1.40;;;19.00;1.00;;;;;;5014640;28;20181;-77
2023/07/23 12:07:06;;;;;;;1.40;1.10;;;19.00;1.00;;;;;;5015790;28;20582;-76
2023/07/23 12:09:34;;;;;;;1.87;1.33;;;19.00;1.00;;;;;;5014964;28;20678;-76
2023/07/23 12:11:59;;;;;;;2.70;1.30;;;19.00;1.00;;;;;;5015970;28;20188;-77
2023/07/23 12:14:25;;;;;;;2.03;1.30;;;19.10;1.00;;;;;;5015105;28;20177;-77
2023/07/23 12:16:51;;;;;;;1.43;1.33;;;19.10;1.00;;;;;;5014164;28;20237;-77
2023/07/23 12:19:19;;;;;;;2.30;1.50;;;19.10;1.00;;;;;;5014074;28;20205;-78
2023/07/23 12:21:46;;;;;;;2.90;1.47;;;19.10;1.00;;;;;;5015766;28;20173;-77
2023/07/23 12:24:20;;;;;;;1.30;1.20;;;19.10;1.00;;;;;;5014308;28;20173;-77
2023/07/23 12:26:54;;;;;;;1.43;1.33;;;19.20;1.00;;;;;;5015975;28;20156;-77
2023/07/23 12:29:21;;;;;;;4.30;1.60;;;19.20;1.00;;;;;;5013919;28;20176;-77
2023/07/23 12:31:48;;;;;;;1.30;1.03;;;19.30;1.00;;;;;;5013904;28;20188;-77
2023/07/23 12:34:15;;;;;;;2.40;1.20;;;19.30;1.00;;;;;;5015528;28;20669;-77
2023/07/23 12:36:42;;;;;;;3.50;1.20;;;19.40;1.00;;;;;;5015343;28;20169;-76
2023/07/23 12:39:09;;;;;;;1.47;1.33;;;19.40;1.00;;;;;;5015193;28;20204;-77
2023/07/23 12:41:36;;;;;;;1.47;1.30;;;19.40;1.00;;;;;;5013842;28;20236;-77
2023/07/23 12:44:02;;;;;;;1.63;1.33;;;19.40;1.00;;;;;;5013813;28;20180;-77
2023/07/23 12:46:29;;;;;;;1.43;1.30;;;19.40;1.00;;;;;;5015515;28;20173;-78
2023/07/23 12:48:54;;;;;;;2.70;1.47;;;19.40;1.00;;;;;;5014948;28;20173;-77
2023/07/23 12:51:21;;;;;;;1.87;1.53;;;19.50;1.00;;;;;;5013671;28;20197;-77